Genua — IIYU — position and weather

sailwx.info

Track history (hours):
 
Tides and Currents Weather Stations Pressure Air Temp Water Temp Dewpoint Dewpoint Depression Visibility Wind Speed Wind Dir Waves Ship Positions

Genua

Last reported at 2015-Jan-31 04:33 UTC. Time now 2015-Jan-31 05:34 UTC.
Position N 44°24' E 008°56'.

Length 35 m; draft 6 m.

Type: Tug. MMSI: 247204000.

Date/timePositionNaut miles runAvg speedWind from/ knotsBaromVisibWave heightAir tempDewpointWater temp
2015-Jan-31 04:33N 44°24' E 008°56'1 1.1
2015-Jan-31 03:33N 44°25' E 008°55'0 0.0
2015-Jan-31 02:33N 44°25' E 008°55'0 0.0
2015-Jan-31 01:33N 44°25' E 008°55'0 0.0
2015-Jan-31 00:33N 44°25' E 008°55'0 0.0
2015-Jan-30 23:33N 44°25' E 008°55'0 0.0
2015-Jan-30 22:30N 44°25' E 008°55'0 0.0
2015-Jan-30 21:33N 44°25' E 008°55'0 0.0
2015-Jan-30 20:33N 44°25' E 008°55'0 0.0
2015-Jan-30 19:33N 44°25' E 008°55'0 0.0
2015-Jan-30 18:33N 44°25' E 008°55'0 0.5
2015-Jan-30 17:33N 44°24' E 008°55'1 0.5
2015-Jan-30 16:33N 44°25' E 008°55'2 1.7
2015-Jan-30 15:33N 44°24' E 008°53'2 1.7
2015-Jan-30 14:33N 44°25' E 008°55'0 0.0
2015-Jan-30 13:33N 44°25' E 008°55'0 0.0
2015-Jan-30 12:33N 44°25' E 008°55'0 0.0
2015-Jan-30 11:33N 44°25' E 008°55'0 0.0
2015-Jan-30 10:33N 44°25' E 008°55'1 1.2
2015-Jan-30 09:33N 44°24' E 008°54'1 1.4
2015-Jan-30 08:32N 44°24' E 008°56'2 1.9
2015-Jan-30 07:33N 44°24' E 008°53'2 1.6
2015-Jan-30 06:33N 44°25' E 008°55'0 0.0
2015-Jan-30 05:32N 44°25' E 008°55'1 1.4
2015-Jan-30 04:32N 44°24' E 008°54'1 1.4
2015-Jan-30 03:33N 44°25' E 008°55'0 0.0
2015-Jan-30 02:33N 44°25' E 008°55'0 0.0
2015-Jan-30 01:33N 44°25' E 008°55'0 0.0
2015-Jan-30 00:33N 44°25' E 008°55'0 0.0
2015-Jan-29 23:33N 44°25' E 008°55'0 0.0
2015-Jan-29 22:32N 44°25' E 008°55'0 0.0
2015-Jan-29 21:33N 44°25' E 008°55'0 0.0
2015-Jan-29 20:33N 44°25' E 008°55'0 0.0
2015-Jan-29 19:33N 44°25' E 008°55'0 0.0
2015-Jan-29 18:33N 44°25' E 008°55'0 0.0
2015-Jan-29 17:32N 44°25' E 008°55'0 0.1
2015-Jan-29 16:33N 44°25' E 008°55'0 0.0
2015-Jan-29 15:33N 44°25' E 008°55'0 0.0
2015-Jan-29 14:32N 44°25' E 008°55'0 0.0
2015-Jan-29 13:33N 44°25' E 008°55'0 0.0
2015-Jan-29 12:33N 44°25' E 008°55'0 0.0
2015-Jan-29 11:33N 44°25' E 008°55'0 0.0
2015-Jan-29 10:33N 44°25' E 008°55'0 0.1
2015-Jan-29 09:33N 44°25' E 008°55'  
2015-Jan-26 14:20N 44°25' E 008°55'0 0.0
2015-Jan-26 13:33N 44°25' E 008°55'0 0.0
2015-Jan-26 12:33N 44°25' E 008°55'  
2015-Jan-23 14:27N 44°25' E 008°55'0 0.0
2015-Jan-23 13:34N 44°25' E 008°55'0 0.0
2015-Jan-23 12:32N 44°25' E 008°55'0 0.0
2015-Jan-23 11:33N 44°25' E 008°55'0 0.0
2015-Jan-23 10:33N 44°25' E 008°55'0 0.0
2015-Jan-23 09:33N 44°25' E 008°55'0 0.5
2015-Jan-23 08:33N 44°24' E 008°55'1 0.8
2015-Jan-23 07:33N 44°24' E 008°56'1 1.0
2015-Jan-23 06:33N 44°25' E 008°55'0 0.0
2015-Jan-23 05:33N 44°25' E 008°55'0 0.0
2015-Jan-23 04:33N 44°25' E 008°55'0 0.0
2015-Jan-23 03:33N 44°25' E 008°55'0 0.0
2015-Jan-23 02:33N 44°25' E 008°55'0 0.0
2015-Jan-23 01:33N 44°25' E 008°55'0 0.0
2015-Jan-23 00:33N 44°25' E 008°55'1 0.7
2015-Jan-22 23:33N 44°24' E 008°55'1 0.7
2015-Jan-22 22:33N 44°25' E 008°55'0 0.0
2015-Jan-22 21:33N 44°25' E 008°55'0 0.0
2015-Jan-22 20:32N 44°25' E 008°55'0 0.0
2015-Jan-22 19:33N 44°25' E 008°55'0 0.3
2015-Jan-22 18:33N 44°25' E 008°55'0 0.3
2015-Jan-22 17:33N 44°25' E 008°55'0 0.0
2015-Jan-22 16:33N 44°25' E 008°55'0 0.0
2015-Jan-22 15:33N 44°25' E 008°55'0 0.0
2015-Jan-22 14:33N 44°25' E 008°55'4 4.0
2015-Jan-22 13:32N 44°25' E 008°50'0 0.2
2015-Jan-22 12:32N 44°25' E 008°49'0 0.2
2015-Jan-22 11:31N 44°25' E 008°50'1 1.1
2015-Jan-22 10:33N 44°25' E 008°51'3 3.2
2015-Jan-22 09:33N 44°25' E 008°55'0 0.0
2015-Jan-22 08:33N 44°25' E 008°55'1 1.2
2015-Jan-22 07:33N 44°24' E 008°54'1 0.8
2015-Jan-22 06:33N 44°24' E 008°55'1 0.6
2015-Jan-22 05:32N 44°24' E 008°54'1 1.1
2015-Jan-22 04:33N 44°25' E 008°55'0 0.0
2015-Jan-22 03:34N 44°25' E 008°55'0 0.0
2015-Jan-22 02:33N 44°25' E 008°55'0 0.0
2015-Jan-22 01:33N 44°25' E 008°55'0 0.0
2015-Jan-22 00:33N 44°25' E 008°55'0 0.0
2015-Jan-21 23:33N 44°25' E 008°55'0 0.0
2015-Jan-21 22:50N 44°25' E 008°55'0 0.0
2015-Jan-21 22:46N 44°25' E 008°55'0 0.0
2015-Jan-21 22:33N 44°25' E 008°55'0 0.0
2015-Jan-21 21:33N 44°25' E 008°55'0 0.0
2015-Jan-21 20:33N 44°25' E 008°55'2 1.5
2015-Jan-21 19:32N 44°24' E 008°53'2 1.6
2015-Jan-21 18:32N 44°24' E 008°55'0 0.3
2015-Jan-21 17:33N 44°24' E 008°56'0 0.2
2015-Jan-21 16:33N 44°24' E 008°55'0 0.3
2015-Jan-21 15:33N 44°24' E 008°55'0 0.0
2015-Jan-21 14:33N 44°24' E 008°55'1 0.9
2015-Jan-21 13:33N 44°25' E 008°55'0 0.0
2015-Jan-21 12:33N 44°25' E 008°55'1 0.8
2015-Jan-21 11:33N 44°24' E 008°55'1 0.8
2015-Jan-21 10:33N 44°25' E 008°55'0 0.0
2015-Jan-21 09:33N 44°25' E 008°55'0 0.0
2015-Jan-21 08:33N 44°25' E 008°55'0 0.0
2015-Jan-21 07:33N 44°25' E 008°55'0 0.4
2015-Jan-21 06:33N 44°24' E 008°55'1 1.0
2015-Jan-21 05:32N 44°24' E 008°56'  
Track history (hours):
 
Tides and Currents Weather Stations Pressure Air Temp Water Temp Dewpoint Dewpoint Depression Visibility Wind Speed Wind Dir Waves Ship Positions

Genua

Last reported at 2015-Jan-31 04:33 UTC. Time now 2015-Jan-31 05:34 UTC.
Position N 44°24' E 008°56'.

Length 35 m; draft 6 m.

Type: Tug. MMSI: 247204000.

Date/timePositionNaut miles runAvg speedWind from/ knotsBaromVisibWave heightAir tempDewpointWater temp
2015-Jan-31 04:33N 44°24' E 008°56'1 1.1
2015-Jan-31 03:33N 44°25' E 008°55'0 0.0
2015-Jan-31 02:33N 44°25' E 008°55'0 0.0
2015-Jan-31 01:33N 44°25' E 008°55'0 0.0
2015-Jan-31 00:33N 44°25' E 008°55'0 0.0
2015-Jan-30 23:33N 44°25' E 008°55'0 0.0
2015-Jan-30 22:30N 44°25' E 008°55'0 0.0
2015-Jan-30 21:33N 44°25' E 008°55'0 0.0
2015-Jan-30 20:33N 44°25' E 008°55'0 0.0
2015-Jan-30 19:33N 44°25' E 008°55'0 0.0
2015-Jan-30 18:33N 44°25' E 008°55'0 0.5
2015-Jan-30 17:33N 44°24' E 008°55'1 0.5
2015-Jan-30 16:33N 44°25' E 008°55'2 1.7
2015-Jan-30 15:33N 44°24' E 008°53'2 1.7
2015-Jan-30 14:33N 44°25' E 008°55'0 0.0
2015-Jan-30 13:33N 44°25' E 008°55'0 0.0
2015-Jan-30 12:33N 44°25' E 008°55'0 0.0
2015-Jan-30 11:33N 44°25' E 008°55'0 0.0
2015-Jan-30 10:33N 44°25' E 008°55'1 1.2
2015-Jan-30 09:33N 44°24' E 008°54'1 1.4
2015-Jan-30 08:32N 44°24' E 008°56'2 1.9
2015-Jan-30 07:33N 44°24' E 008°53'2 1.6
2015-Jan-30 06:33N 44°25' E 008°55'0 0.0
2015-Jan-30 05:32N 44°25' E 008°55'1 1.4
2015-Jan-30 04:32N 44°24' E 008°54'1 1.4
2015-Jan-30 03:33N 44°25' E 008°55'0 0.0
2015-Jan-30 02:33N 44°25' E 008°55'0 0.0
2015-Jan-30 01:33N 44°25' E 008°55'0 0.0
2015-Jan-30 00:33N 44°25' E 008°55'0 0.0
2015-Jan-29 23:33N 44°25' E 008°55'0 0.0
2015-Jan-29 22:32N 44°25' E 008°55'0 0.0
2015-Jan-29 21:33N 44°25' E 008°55'0 0.0
2015-Jan-29 20:33N 44°25' E 008°55'0 0.0
2015-Jan-29 19:33N 44°25' E 008°55'0 0.0
2015-Jan-29 18:33N 44°25' E 008°55'0 0.0
2015-Jan-29 17:32N 44°25' E 008°55'0 0.1
2015-Jan-29 16:33N 44°25' E 008°55'0 0.0
2015-Jan-29 15:33N 44°25' E 008°55'0 0.0
2015-Jan-29 14:32N 44°25' E 008°55'0 0.0
2015-Jan-29 13:33N 44°25' E 008°55'0 0.0
2015-Jan-29 12:33N 44°25' E 008°55'0 0.0
2015-Jan-29 11:33N 44°25' E 008°55'0 0.0
2015-Jan-29 10:33N 44°25' E 008°55'0 0.1
2015-Jan-29 09:33N 44°25' E 008°55'  
2015-Jan-26 14:20N 44°25' E 008°55'0 0.0
2015-Jan-26 13:33N 44°25' E 008°55'0 0.0
2015-Jan-26 12:33N 44°25' E 008°55'  
2015-Jan-23 14:27N 44°25' E 008°55'0 0.0
2015-Jan-23 13:34N 44°25' E 008°55'0 0.0
2015-Jan-23 12:32N 44°25' E 008°55'0 0.0
2015-Jan-23 11:33N 44°25' E 008°55'0 0.0
2015-Jan-23 10:33N 44°25' E 008°55'0 0.0
2015-Jan-23 09:33N 44°25' E 008°55'0 0.5
2015-Jan-23 08:33N 44°24' E 008°55'1 0.8
2015-Jan-23 07:33N 44°24' E 008°56'1 1.0
2015-Jan-23 06:33N 44°25' E 008°55'0 0.0
2015-Jan-23 05:33N 44°25' E 008°55'0 0.0
2015-Jan-23 04:33N 44°25' E 008°55'0 0.0
2015-Jan-23 03:33N 44°25' E 008°55'0 0.0
2015-Jan-23 02:33N 44°25' E 008°55'0 0.0
2015-Jan-23 01:33N 44°25' E 008°55'0 0.0
2015-Jan-23 00:33N 44°25' E 008°55'1 0.7
2015-Jan-22 23:33N 44°24' E 008°55'1 0.7
2015-Jan-22 22:33N 44°25' E 008°55'0 0.0
2015-Jan-22 21:33N 44°25' E 008°55'0 0.0
2015-Jan-22 20:32N 44°25' E 008°55'0 0.0
2015-Jan-22 19:33N 44°25' E 008°55'0 0.3
2015-Jan-22 18:33N 44°25' E 008°55'0 0.3
2015-Jan-22 17:33N 44°25' E 008°55'0 0.0
2015-Jan-22 16:33N 44°25' E 008°55'0 0.0
2015-Jan-22 15:33N 44°25' E 008°55'0 0.0
2015-Jan-22 14:33N 44°25' E 008°55'4 4.0
2015-Jan-22 13:32N 44°25' E 008°50'0 0.2
2015-Jan-22 12:32N 44°25' E 008°49'0 0.2
2015-Jan-22 11:31N 44°25' E 008°50'1 1.1
2015-Jan-22 10:33N 44°25' E 008°51'3 3.2
2015-Jan-22 09:33N 44°25' E 008°55'0 0.0
2015-Jan-22 08:33N 44°25' E 008°55'1 1.2
2015-Jan-22 07:33N 44°24' E 008°54'1 0.8
2015-Jan-22 06:33N 44°24' E 008°55'1 0.6
2015-Jan-22 05:32N 44°24' E 008°54'1 1.1
2015-Jan-22 04:33N 44°25' E 008°55'0 0.0
2015-Jan-22 03:34N 44°25' E 008°55'0 0.0
2015-Jan-22 02:33N 44°25' E 008°55'0 0.0
2015-Jan-22 01:33N 44°25' E 008°55'0 0.0
2015-Jan-22 00:33N 44°25' E 008°55'0 0.0
2015-Jan-21 23:33N 44°25' E 008°55'0 0.0
2015-Jan-21 22:50N 44°25' E 008°55'0 0.0
2015-Jan-21 22:46N 44°25' E 008°55'0 0.0
2015-Jan-21 22:33N 44°25' E 008°55'0 0.0
2015-Jan-21 21:33N 44°25' E 008°55'0 0.0
2015-Jan-21 20:33N 44°25' E 008°55'2 1.5
2015-Jan-21 19:32N 44°24' E 008°53'2 1.6
2015-Jan-21 18:32N 44°24' E 008°55'0 0.3
2015-Jan-21 17:33N 44°24' E 008°56'0 0.2
2015-Jan-21 16:33N 44°24' E 008°55'0 0.3
2015-Jan-21 15:33N 44°24' E 008°55'0 0.0
2015-Jan-21 14:33N 44°24' E 008°55'1 0.9
2015-Jan-21 13:33N 44°25' E 008°55'0 0.0
2015-Jan-21 12:33N 44°25' E 008°55'1 0.8
2015-Jan-21 11:33N 44°24' E 008°55'1 0.8
2015-Jan-21 10:33N 44°25' E 008°55'0 0.0
2015-Jan-21 09:33N 44°25' E 008°55'0 0.0
2015-Jan-21 08:33N 44°25' E 008°55'0 0.0
2015-Jan-21 07:33N 44°25' E 008°55'0 0.4
2015-Jan-21 06:33N 44°24' E 008°55'1 1.0
2015-Jan-21 05:32N 44°24' E 008°56'  

Dump ship's entire track history